createdAt,value
2022-10-24T00:01:28.347Z,11.36
2022-10-24T00:03:59.097Z,11.45
2022-10-24T00:06:26.681Z,11.27
2022-10-24T00:08:54.039Z,11.25
2022-10-24T00:11:25.061Z,11.30
2022-10-24T00:13:54.177Z,11.26
2022-10-24T00:16:21.808Z,11.30
2022-10-24T00:18:49.388Z,11.29
2022-10-24T00:21:16.895Z,11.28
2022-10-24T00:23:44.853Z,11.39
2022-10-24T00:26:12.893Z,11.26
2022-10-24T00:28:41.326Z,11.27
2022-10-24T00:31:14.083Z,11.12
2022-10-24T00:33:42.127Z,11.20
2022-10-24T00:36:14.817Z,11.18
2022-10-24T00:38:42.636Z,11.14
2022-10-24T00:41:25.006Z,10.91
2022-10-24T00:44:41.501Z,10.93
2022-10-24T00:47:19.607Z,11.04
2022-10-24T00:49:52.264Z,10.90
2022-10-24T00:52:27.113Z,10.78
2022-10-24T00:54:57.146Z,10.94
2022-10-24T00:57:29.691Z,10.94
2022-10-24T01:00:05.047Z,10.88
2022-10-24T01:02:33.100Z,10.78
2022-10-24T01:05:02.425Z,10.63
2022-10-24T01:07:39.112Z,10.54
2022-10-24T01:10:37.956Z,10.78
2022-10-24T01:13:27.364Z,10.75
2022-10-24T01:16:21.442Z,10.50
2022-10-24T01:19:04.896Z,10.51
2022-10-24T01:21:37.684Z,10.66
2022-10-24T01:24:14.340Z,10.48
2022-10-24T01:26:57.073Z,10.30
2022-10-24T01:29:46.286Z,10.38
2022-10-24T01:32:31.915Z,10.49
2022-10-24T01:35:02.659Z,10.31
2022-10-24T01:37:43.283Z,10.24
2022-10-24T01:40:18.918Z,10.21
2022-10-24T01:42:49.588Z,10.16
2022-10-24T01:45:25.566Z,10.44
2022-10-24T01:47:56.589Z,10.34
2022-10-24T01:50:26.522Z,10.44
2022-10-24T01:52:57.286Z,10.45
2022-10-24T01:55:24.989Z,10.26
2022-10-24T01:57:52.514Z,10.35
2022-10-24T02:00:22.884Z,10.34
2022-10-24T02:02:55.825Z,10.44
2022-10-24T02:05:36.625Z,10.31
2022-10-24T02:08:12.518Z,10.25
2022-10-24T02:10:46.118Z,10.27
2022-10-24T02:13:24.916Z,10.29
2022-10-24T02:15:56.052Z,10.35
2022-10-24T02:18:23.662Z,10.29
2022-10-24T02:21:16.227Z,10.38
2022-10-24T02:23:55.778Z,10.27
2022-10-24T02:26:49.439Z,10.17
2022-10-24T02:29:33.267Z,10.03
2022-10-24T02:32:06.219Z,10.06
2022-10-24T02:34:35.581Z,10.24
2022-10-24T02:37:05.249Z,10.20
2022-10-24T02:39:34.880Z,10.06
2022-10-24T02:42:04.833Z,10.19
2022-10-24T02:44:33.944Z,10.19
2022-10-24T02:47:05.265Z,10.26
2022-10-24T02:49:32.849Z,10.35
2022-10-24T02:52:00.629Z,10.29
2022-10-24T02:54:28.019Z,10.28
2022-10-24T02:57:00.531Z,10.31
2022-10-24T02:59:28.467Z,10.13
2022-10-24T03:01:56.171Z,10.14
2022-10-24T03:04:23.864Z,10.17
2022-10-24T03:06:51.363Z,10.15
2022-10-24T03:09:18.883Z,10.19
2022-10-24T03:11:46.566Z,10.17
2022-10-24T03:14:15.951Z,10.30
2022-10-24T03:16:43.663Z,10.15
2022-10-24T03:19:11.018Z,10.24
2022-10-24T03:21:38.678Z,10.23
2022-10-24T03:26:33.939Z,10.16
2022-10-24T03:29:01.557Z,10.19
2022-10-24T03:31:28.940Z,10.09
2022-10-24T03:33:56.522Z,10.13
2022-10-24T03:36:24.279Z,10.17
2022-10-24T03:38:51.769Z,10.14
2022-10-24T03:41:19.177Z,10.12
2022-10-24T03:43:46.802Z,10.28
2022-10-24T03:46:20.143Z,10.31
2022-10-24T03:48:47.573Z,10.29
2022-10-24T03:51:15.154Z,10.26
2022-10-24T03:53:42.992Z,10.31
2022-10-24T03:56:11.138Z,10.19
2022-10-24T03:58:39.563Z,10.16
2022-10-24T04:01:07.707Z,9.98
2022-10-24T04:03:36.032Z,10.17
2022-10-24T04:06:04.286Z,10.22
2022-10-24T04:08:32.489Z,13.90
2022-10-24T04:11:00.846Z,14.12
2022-10-24T04:13:29.030Z,14.96
2022-10-24T04:15:56.396Z,15.59
2022-10-24T04:18:23.815Z,16.04
2022-10-24T04:20:51.392Z,15.81
2022-10-24T04:23:19.895Z,15.87
2022-10-24T04:25:47.278Z,16.19
2022-10-24T04:28:17.399Z,15.61
2022-10-24T04:30:45.226Z,15.11
2022-10-24T04:33:12.669Z,15.72
2022-10-24T04:35:40.201Z,15.92
2022-10-24T04:38:07.556Z,14.61
2022-10-24T04:40:34.972Z,14.02
2022-10-24T04:43:02.569Z,13.53
2022-10-24T04:45:29.997Z,12.98
2022-10-24T04:47:57.527Z,12.56
2022-10-24T04:50:24.961Z,12.61
2022-10-24T04:52:52.393Z,12.93
2022-10-24T04:55:22.721Z,12.48
2022-10-24T04:57:50.044Z,12.82
2022-10-24T05:00:17.702Z,12.59
2022-10-24T05:02:45.189Z,11.52
2022-10-24T05:05:13.262Z,10.42
2022-10-24T05:07:40.870Z,10.05
2022-10-24T05:10:08.935Z,10.08
2022-10-24T05:12:36.916Z,9.79
2022-10-24T05:15:05.078Z,9.98
2022-10-24T05:17:33.153Z,9.85
2022-10-24T05:20:01.170Z,9.90
2022-10-24T05:22:28.794Z,9.88
2022-10-24T05:24:56.124Z,9.81
2022-10-24T05:27:23.757Z,9.70
2022-10-24T05:29:52.546Z,9.83
2022-10-24T05:32:21.565Z,9.68
2022-10-24T05:34:49.311Z,9.68
2022-10-24T05:37:17.751Z,9.43
2022-10-24T05:39:45.397Z,9.69
2022-10-24T05:42:12.881Z,9.76
2022-10-24T05:44:40.701Z,9.77
2022-10-24T05:47:08.471Z,9.82
2022-10-24T05:49:36.471Z,10.03
2022-10-24T05:52:04.656Z,10.08
2022-10-24T05:54:42.508Z,10.02
2022-10-24T05:57:20.054Z,10.28
2022-10-24T05:59:47.477Z,10.24
2022-10-24T06:02:20.165Z,10.44
2022-10-24T06:04:48.803Z,10.51
2022-10-24T06:07:19.147Z,10.65
2022-10-24T06:09:46.751Z,10.58
2022-10-24T06:12:14.281Z,10.64
2022-10-24T06:14:41.694Z,10.74
2022-10-24T06:17:12.227Z,10.61
2022-10-24T06:19:39.989Z,10.53
2022-10-24T06:22:08.300Z,10.47
2022-10-24T06:24:37.524Z,10.51
2022-10-24T06:27:07.888Z,10.57
2022-10-24T06:29:36.312Z,10.56
2022-10-24T06:32:04.206Z,10.70
2022-10-24T06:34:31.819Z,10.70
2022-10-24T06:36:59.468Z,10.71
2022-10-24T06:39:26.886Z,10.83
2022-10-24T06:41:54.257Z,10.62
2022-10-24T06:44:21.711Z,10.71
2022-10-24T06:46:49.426Z,10.95
2022-10-24T06:49:16.913Z,11.06
2022-10-24T06:51:44.583Z,11.24
2022-10-24T06:54:12.968Z,11.37
2022-10-24T06:56:40.324Z,11.44
2022-10-24T06:59:14.517Z,11.74
2022-10-24T07:01:46.441Z,11.92
2022-10-24T07:04:17.019Z,11.90
2022-10-24T07:06:47.451Z,11.94
2022-10-24T07:09:17.915Z,11.93
2022-10-24T07:11:45.692Z,12.20
2022-10-24T07:14:13.210Z,12.12
2022-10-24T07:16:41.422Z,12.60
2022-10-24T07:19:09.007Z,12.65
2022-10-24T07:21:36.566Z,12.64
2022-10-24T07:24:04.701Z,12.66
2022-10-24T07:26:32.629Z,12.83
2022-10-24T07:31:33.440Z,13.05
2022-10-24T07:34:03.624Z,13.18
2022-10-24T07:36:31.472Z,13.18
2022-10-24T07:39:02.623Z,13.22
2022-10-24T07:41:31.684Z,13.21
2022-10-24T07:44:05.319Z,13.25
2022-10-24T07:46:32.987Z,13.28
2022-10-24T07:49:03.583Z,13.38
2022-10-24T07:51:33.759Z,13.48
2022-10-24T07:54:01.454Z,13.58
2022-10-24T07:56:29.170Z,13.65
2022-10-24T07:58:56.949Z,13.71
2022-10-24T08:01:25.974Z,13.82
2022-10-24T08:03:57.351Z,13.90
2022-10-24T08:06:30.007Z,14.14
2022-10-24T08:09:03.043Z,14.36
2022-10-24T08:11:30.714Z,14.55
2022-10-24T08:14:01.086Z,14.52
2022-10-24T08:16:29.258Z,14.48
2022-10-24T08:19:00.501Z,14.57
2022-10-24T08:21:30.698Z,14.95
2022-10-24T08:24:00.878Z,14.96
2022-10-24T08:26:28.946Z,14.94
2022-10-24T08:28:56.802Z,15.18
2022-10-24T08:31:25.379Z,15.49
2022-10-24T08:33:56.587Z,15.55
2022-10-24T08:36:26.003Z,16.91
2022-10-24T08:38:54.286Z,16.58
2022-10-24T08:41:33.811Z,16.42
2022-10-24T08:44:04.786Z,16.35
2022-10-24T08:46:36.316Z,16.26
2022-10-24T08:49:26.417Z,16.37
2022-10-24T08:52:12.925Z,16.49
2022-10-24T08:54:44.774Z,16.59
2022-10-24T08:57:22.732Z,16.57
2022-10-24T08:59:52.205Z,16.60
2022-10-24T09:02:26.537Z,16.59
2022-10-24T09:04:59.296Z,16.71
2022-10-24T09:07:30.224Z,16.88
2022-10-24T09:10:18.980Z,16.99
2022-10-24T09:12:47.040Z,17.41
2022-10-24T09:15:29.134Z,17.51
2022-10-24T09:17:59.465Z,17.75
2022-10-24T09:20:28.888Z,17.76
2022-10-24T09:23:01.234Z,17.80
2022-10-24T09:29:10.057Z,18.11
2022-10-24T09:31:37.761Z,18.27
2022-10-24T09:34:05.321Z,18.32
2022-10-24T09:36:32.892Z,18.31
2022-10-24T09:39:25.696Z,18.27
2022-10-24T09:41:53.742Z,18.83
2022-10-24T09:44:32.583Z,19.01
2022-10-24T09:47:01.753Z,18.87
2022-10-24T09:49:39.852Z,18.88
2022-10-24T09:52:17.089Z,18.83
2022-10-24T09:54:45.418Z,18.76
2022-10-24T09:57:12.928Z,18.77
2022-10-24T10:00:06.769Z,18.77
2022-10-24T10:02:35.150Z,18.84
2022-10-24T10:05:02.877Z,19.56
2022-10-24T10:07:36.183Z,19.65
2022-10-24T10:10:36.612Z,20.26
2022-10-24T10:13:31.051Z,20.01
2022-10-24T10:16:02.684Z,19.91
2022-10-24T10:18:39.350Z,20.07
2022-10-24T10:21:14.806Z,19.95
2022-10-24T10:23:53.088Z,20.13
2022-10-24T10:26:28.057Z,20.90
2022-10-24T10:28:59.324Z,20.45
2022-10-24T10:32:01.742Z,20.25
2022-10-24T10:34:45.216Z,20.31
2022-10-24T10:37:24.939Z,20.05
2022-10-24T10:40:17.394Z,20.01
2022-10-24T10:43:00.506Z,19.74
2022-10-24T10:45:33.075Z,19.67
2022-10-24T10:48:29.781Z,19.67
2022-10-24T10:51:08.315Z,19.59
2022-10-24T10:53:51.127Z,19.58
2022-10-24T10:56:36.411Z,19.67
2022-10-24T10:59:35.106Z,19.80
2022-10-24T11:02:53.187Z,19.78
2022-10-24T11:05:37.882Z,19.85
2022-10-24T11:08:19.283Z,20.05
2022-10-24T11:11:09.471Z,20.24
2022-10-24T11:13:47.830Z,20.05
2022-10-24T11:16:24.287Z,20.28
2022-10-24T11:18:56.757Z,20.45
2022-10-24T11:21:27.578Z,20.57
2022-10-24T11:24:04.480Z,20.62
2022-10-24T11:27:01.316Z,20.55
2022-10-24T11:29:51.548Z,20.64
2022-10-24T11:32:27.053Z,20.44
2022-10-24T11:35:06.279Z,20.32
2022-10-24T11:37:38.861Z,20.32
2022-10-24T11:40:16.840Z,20.35
2022-10-24T11:43:05.373Z,20.52
2022-10-24T11:45:50.022Z,20.56
2022-10-24T11:48:34.642Z,20.65
2022-10-24T11:51:20.571Z,20.71
2022-10-24T11:54:05.406Z,20.75
2022-10-24T11:56:53.446Z,20.91
2022-10-24T11:59:22.171Z,20.77
2022-10-24T12:01:55.915Z,20.70
2022-10-24T12:04:58.545Z,20.70
2022-10-24T12:07:57.206Z,20.83
2022-10-24T12:10:59.004Z,20.93
2022-10-24T12:13:45.341Z,20.73
2022-10-24T12:16:47.961Z,20.84
2022-10-24T12:19:19.593Z,20.77
2022-10-24T12:21:57.805Z,20.78
2022-10-24T12:24:34.233Z,20.58
2022-10-24T12:27:32.615Z,20.58
2022-10-24T12:30:17.125Z,20.45
2022-10-24T12:32:49.046Z,20.36
2022-10-24T12:35:38.058Z,20.36
2022-10-24T12:38:16.985Z,20.36
2022-10-24T12:40:52.381Z,20.31
2022-10-24T12:43:31.763Z,20.23
2022-10-24T12:46:21.825Z,20.27
2022-10-24T12:48:56.674Z,20.31
2022-10-24T12:51:29.221Z,20.35
2022-10-24T12:54:11.781Z,20.53
2022-10-24T12:56:51.394Z,20.55
2022-10-24T12:59:29.156Z,20.46
2022-10-24T13:02:21.334Z,20.36
2022-10-24T13:05:03.254Z,20.27
2022-10-24T13:07:51.307Z,20.33
2022-10-24T13:10:18.788Z,20.50
2022-10-24T13:12:54.717Z,20.57
2022-10-24T13:15:23.013Z,20.72
2022-10-24T13:18:17.984Z,20.58
2022-10-24T13:21:05.880Z,20.59
2022-10-24T13:23:48.058Z,20.50
2022-10-24T13:26:37.587Z,20.50
2022-10-24T13:29:11.983Z,20.56
2022-10-24T13:31:45.725Z,20.51
2022-10-24T13:34:35.492Z,20.45
2022-10-24T13:37:12.865Z,20.38
2022-10-24T13:39:50.734Z,20.34
2022-10-24T13:42:49.886Z,20.54
2022-10-24T13:45:28.921Z,20.80
2022-10-24T13:48:14.536Z,20.60
2022-10-24T13:50:53.170Z,20.40
2022-10-24T13:53:30.828Z,20.31
2022-10-24T13:56:03.418Z,20.30
2022-10-24T13:58:41.011Z,20.41
2022-10-24T14:01:22.202Z,20.29
2022-10-24T14:03:50.745Z,20.34
2022-10-24T14:06:25.136Z,20.33
2022-10-24T14:09:05.596Z,20.32
2022-10-24T14:11:46.872Z,20.18
2022-10-24T14:14:35.536Z,20.11
2022-10-24T14:17:23.634Z,20.01
2022-10-24T14:20:00.868Z,19.92
2022-10-24T14:22:41.473Z,19.85
2022-10-24T14:25:24.156Z,19.83
2022-10-24T14:27:54.658Z,19.87
2022-10-24T14:30:25.987Z,20.02
2022-10-24T14:33:13.125Z,20.33
2022-10-24T14:35:43.133Z,20.37
2022-10-24T14:38:14.674Z,20.77
2022-10-24T14:40:44.103Z,20.98
2022-10-24T14:43:21.870Z,20.97
2022-10-24T14:46:15.721Z,21.02
2022-10-24T14:48:48.464Z,20.71
2022-10-24T14:51:27.768Z,20.37
2022-10-24T14:53:57.321Z,20.14
2022-10-24T14:56:39.778Z,19.96
2022-10-24T14:59:24.992Z,19.78
2022-10-24T15:02:02.584Z,19.61
2022-10-24T15:04:42.936Z,19.45
2022-10-24T15:07:26.296Z,19.34
2022-10-24T15:10:14.077Z,19.22
2022-10-24T15:13:18.592Z,19.09
2022-10-24T15:15:55.825Z,18.96
2022-10-24T15:18:29.610Z,18.86
2022-10-24T15:21:05.456Z,18.77
2022-10-24T15:23:36.025Z,18.70
2022-10-24T15:26:16.748Z,19.59
2022-10-24T15:28:54.550Z,19.08
2022-10-24T15:31:25.367Z,18.81
2022-10-24T15:33:59.025Z,18.61
2022-10-24T15:36:34.739Z,18.44
2022-10-24T15:39:11.931Z,18.28
2022-10-24T15:41:39.873Z,18.09
2022-10-24T15:44:19.658Z,18.08
2022-10-24T15:46:49.942Z,18.01
2022-10-24T15:49:18.329Z,17.95
2022-10-24T15:51:50.423Z,17.86
2022-10-24T15:54:21.276Z,17.74
2022-10-24T15:56:50.501Z,17.79
2022-10-24T15:59:21.338Z,17.74
2022-10-24T16:02:01.947Z,17.58
2022-10-24T16:04:32.998Z,17.57
2022-10-24T16:07:00.308Z,17.46
2022-10-24T16:09:31.473Z,17.37
2022-10-24T16:12:00.286Z,17.25
2022-10-24T16:14:28.447Z,17.16
2022-10-24T16:16:57.246Z,17.20
2022-10-24T16:19:26.117Z,17.17
2022-10-24T16:21:57.304Z,17.05
2022-10-24T16:24:35.188Z,17.04
2022-10-24T16:27:02.647Z,17.05
2022-10-24T16:29:40.050Z,16.94
2022-10-24T16:32:14.090Z,16.88
2022-10-24T16:34:44.527Z,16.88
2022-10-24T16:37:23.901Z,16.93
2022-10-24T16:40:04.903Z,16.81
2022-10-24T16:42:36.462Z,16.70
2022-10-24T16:45:07.349Z,16.69
2022-10-24T16:47:38.902Z,16.71
2022-10-24T16:50:14.614Z,16.68
2022-10-24T16:52:48.400Z,16.77
2022-10-24T16:55:20.294Z,16.70
2022-10-24T16:57:53.905Z,16.65
2022-10-24T17:00:36.447Z,16.53
2022-10-24T17:03:10.294Z,16.45
2022-10-24T17:05:40.797Z,16.44
2022-10-24T17:08:14.570Z,16.57
2022-10-24T17:10:47.044Z,16.61
2022-10-24T17:13:18.441Z,16.44
2022-10-24T17:15:54.952Z,16.41
2022-10-24T17:18:35.686Z,16.43
2022-10-24T17:21:07.460Z,16.54
2022-10-24T17:23:38.732Z,16.41
2022-10-24T17:26:19.098Z,16.29
2022-10-24T17:28:52.861Z,16.42
2022-10-24T17:31:36.018Z,16.46
2022-10-24T17:34:04.085Z,16.40
2022-10-24T17:36:40.539Z,16.22
2022-10-24T17:39:40.390Z,16.18
2022-10-24T17:42:14.284Z,16.20
2022-10-24T17:44:53.005Z,16.29
2022-10-24T17:47:24.102Z,16.30
2022-10-24T17:49:52.509Z,16.28
2022-10-24T17:52:23.675Z,16.16
2022-10-24T17:54:54.989Z,16.11
2022-10-24T17:57:22.648Z,16.13
2022-10-24T17:59:50.698Z,17.26
2022-10-24T18:02:18.812Z,16.61
2022-10-24T18:04:50.271Z,16.50
2022-10-24T18:07:17.795Z,16.38
2022-10-24T18:09:48.280Z,16.30
2022-10-24T18:12:19.089Z,16.16
2022-10-24T18:14:50.016Z,16.01
2022-10-24T18:17:17.824Z,15.97
2022-10-24T18:19:55.891Z,15.83
2022-10-24T18:22:37.278Z,15.76
2022-10-24T18:25:12.481Z,15.72
2022-10-24T18:27:42.669Z,15.77
2022-10-24T18:30:19.784Z,15.77
2022-10-24T18:32:47.739Z,15.74
2022-10-24T18:35:15.626Z,15.66
2022-10-24T18:37:46.585Z,15.64
2022-10-24T18:40:15.090Z,15.62
2022-10-24T18:42:56.213Z,15.59
2022-10-24T18:45:28.219Z,15.79
2022-10-24T18:47:56.074Z,15.84
2022-10-24T18:50:25.289Z,15.49
2022-10-24T18:53:05.021Z,15.37
2022-10-24T18:55:34.942Z,15.43
2022-10-24T18:58:10.629Z,15.43
2022-10-24T19:00:42.590Z,15.34
2022-10-24T19:03:36.500Z,15.41
2022-10-24T19:06:22.619Z,15.28
2022-10-24T19:08:50.442Z,15.25
2022-10-24T19:11:18.429Z,15.32
2022-10-24T19:13:46.544Z,15.36
2022-10-24T19:16:31.603Z,15.32
2022-10-24T19:19:01.646Z,15.22
2022-10-24T19:21:29.300Z,15.23
2022-10-24T19:23:56.831Z,15.20
2022-10-24T19:26:24.365Z,15.12
2022-10-24T19:28:54.280Z,15.13
2022-10-24T19:31:21.977Z,15.15
2022-10-24T19:33:49.997Z,15.10
2022-10-24T19:36:19.375Z,15.05
2022-10-24T19:38:47.107Z,14.95
2022-10-24T19:41:17.281Z,14.86
2022-10-24T19:43:48.073Z,14.85
2022-10-24T19:46:20.291Z,14.83
2022-10-24T19:48:49.538Z,14.79
2022-10-24T19:51:18.274Z,14.80
2022-10-24T19:53:46.518Z,14.82
2022-10-24T19:56:22.676Z,14.77
2022-10-24T19:58:53.499Z,14.75
2022-10-24T20:01:26.839Z,14.60
2022-10-24T20:03:54.547Z,14.54
2022-10-24T20:06:22.584Z,14.58
2022-10-24T20:08:50.206Z,14.55
2022-10-24T20:11:17.986Z,14.44
2022-10-24T20:13:45.339Z,14.48
2022-10-24T20:16:12.910Z,14.59
2022-10-24T20:18:43.900Z,14.46
2022-10-24T20:21:15.507Z,14.17
2022-10-24T20:23:43.310Z,14.21
2022-10-24T20:26:14.549Z,14.25
2022-10-24T20:28:44.984Z,14.31
2022-10-24T20:31:43.387Z,14.12
2022-10-24T20:34:11.181Z,14.17
2022-10-24T20:36:41.630Z,14.27
2022-10-24T20:39:09.334Z,14.20
2022-10-24T20:41:37.634Z,14.28
2022-10-24T20:44:05.735Z,14.32
2022-10-24T20:46:36.284Z,14.20
2022-10-24T20:49:04.613Z,14.15
2022-10-24T20:51:32.131Z,14.20
2022-10-24T20:53:59.684Z,14.24
2022-10-24T20:56:27.089Z,14.17
2022-10-24T20:58:55.435Z,14.08
2022-10-24T21:01:25.807Z,14.21
2022-10-24T21:03:55.251Z,14.14
2022-10-24T21:06:25.127Z,14.02
2022-10-24T21:08:54.178Z,14.04
2022-10-24T21:11:23.907Z,14.06
2022-10-24T21:13:56.906Z,14.07
2022-10-24T21:16:25.476Z,13.95
2022-10-24T21:18:59.406Z,13.82
2022-10-24T21:21:27.490Z,13.80
2022-10-24T21:24:02.229Z,13.73
2022-10-24T21:26:34.741Z,13.60
2022-10-24T21:29:09.234Z,13.54
2022-10-24T21:31:51.795Z,13.56
2022-10-24T21:34:19.754Z,13.54
2022-10-24T21:36:47.759Z,13.55
2022-10-24T21:39:16.322Z,13.59
2022-10-24T21:41:44.276Z,13.59
2022-10-24T21:44:11.711Z,13.69
2022-10-24T21:46:39.443Z,13.70
2022-10-24T21:49:06.962Z,13.74
2022-10-24T21:51:36.717Z,13.80
2022-10-24T21:54:06.774Z,13.77
2022-10-24T21:56:36.424Z,13.76
2022-10-24T21:59:06.524Z,13.76
2022-10-24T22:01:36.138Z,13.71
2022-10-24T22:04:05.804Z,13.72
2022-10-24T22:06:35.151Z,13.72
2022-10-24T22:09:04.826Z,13.73
2022-10-24T22:11:33.915Z,13.74
2022-10-24T22:14:02.605Z,13.69
2022-10-24T22:16:32.191Z,13.67
2022-10-24T22:19:02.204Z,13.63
2022-10-24T22:21:37.912Z,13.59
2022-10-24T22:24:11.987Z,13.53
2022-10-24T22:26:40.222Z,13.46
2022-10-24T22:29:09.377Z,13.39
2022-10-24T22:31:37.268Z,13.41
2022-10-24T22:34:05.295Z,13.35
2022-10-24T22:36:57.439Z,13.32
2022-10-24T22:39:26.200Z,13.25
2022-10-24T22:41:54.215Z,13.34
2022-10-24T22:44:23.074Z,13.22
2022-10-24T22:46:53.389Z,13.17
2022-10-24T22:49:35.169Z,13.22
2022-10-24T22:52:03.118Z,13.21
2022-10-24T22:54:35.256Z,13.16
2022-10-24T22:57:04.185Z,13.13
2022-10-24T22:59:32.647Z,13.10
2022-10-24T23:02:08.556Z,13.04
2022-10-24T23:04:59.132Z,13.18
2022-10-24T23:07:53.917Z,13.08
2022-10-24T23:10:23.574Z,13.05
2022-10-24T23:12:51.752Z,13.11
2022-10-24T23:15:20.776Z,13.09
2022-10-24T23:17:49.441Z,13.14
2022-10-24T23:20:42.919Z,13.02
2022-10-24T23:23:28.167Z,12.94
2022-10-24T23:26:09.092Z,13.06
2022-10-24T23:28:55.820Z,12.96
2022-10-24T23:31:23.677Z,12.89
2022-10-24T23:33:51.390Z,12.88
2022-10-24T23:36:25.208Z,12.91
2022-10-24T23:38:55.701Z,12.85
2022-10-24T23:41:23.568Z,12.80
2022-10-24T23:43:51.215Z,12.76
2022-10-24T23:46:32.621Z,12.73
2022-10-24T23:49:11.929Z,12.71
2022-10-24T23:51:52.314Z,12.59
2022-10-24T23:54:25.633Z,12.61
2022-10-24T23:56:53.475Z,12.52
2022-10-24T23:59:20.997Z,12.41
